Time;durP1;ratioP1;P1;durP2;ratioP2;P2;SDS_P1;SDS_P2;PMS_P1;PMS_P2;Temp;Humidity;BMP_temperature;BMP_pressure;BME280_temperature;BME280_humidity;BME280_pressure;Samples;Min_cycle;Max_cycle;Signal;HPM_P1;HPM_P2
2021/07/05 00:01:13;;;;;;;8.60;6.50;;;23.80;50.70;;;;;;5133512;27;20028;-44
2021/07/05 00:03:38;;;;;;;10.60;6.38;;;23.80;50.90;;;;;;5133908;27;20043;-49
2021/07/05 00:06:05;;;;;;;7.88;6.20;;;23.80;50.90;;;;;;5114604;27;20463;-48
2021/07/05 00:08:30;;;;;;;8.13;5.90;;;23.70;50.90;;;;;;5133691;27;20031;-46
2021/07/05 00:10:56;;;;;;;7.18;5.93;;;23.70;51.00;;;;;;5133673;27;20038;-44
2021/07/05 00:13:22;;;;;;;8.18;5.45;;;23.70;50.80;;;;;;5133176;27;20027;-43
2021/07/05 00:15:48;;;;;;;8.95;5.70;;;23.70;50.80;;;;;;5133290;27;20023;-43
2021/07/05 00:18:14;;;;;;;10.13;5.78;;;23.70;50.80;;;;;;5114263;27;20180;-47
2021/07/05 00:20:43;;;;;;;9.93;5.82;;;23.80;50.70;;;;;;5134016;27;20446;-48
2021/07/05 00:23:10;;;;;;;10.57;5.63;;;23.70;51.00;;;;;;5114283;27;20027;-48
2021/07/05 00:25:37;;;;;;;6.72;5.10;;;23.70;50.70;;;;;;5133587;27;20029;-44
2021/07/05 00:28:04;;;;;;;7.57;4.95;;;23.80;50.40;;;;;;5133604;27;20027;-44
2021/07/05 00:30:30;;;;;;;5.28;4.40;;;23.70;50.50;;;;;;5114698;27;20027;-49
2021/07/05 00:32:56;;;;;;;6.22;4.60;;;23.80;50.80;;;;;;5114697;27;20482;-46
2021/07/05 00:35:24;;;;;;;6.10;4.40;;;23.70;50.80;;;;;;5132225;27;20475;-46
2021/07/05 00:37:50;;;;;;;6.00;4.40;;;23.70;50.80;;;;;;5133211;27;20024;-47
2021/07/05 00:40:18;;;;;;;7.35;4.50;;;23.70;51.20;;;;;;5133652;27;20019;-44
2021/07/05 00:42:45;;;;;;;5.75;4.72;;;23.70;51.60;;;;;;5132866;27;20049;-46
2021/07/05 00:45:30;;;;;;;7.28;4.45;;;23.70;52.30;;;;;;5132346;27;20030;-43
2021/07/05 00:47:56;;;;;;;6.50;4.50;;;23.60;52.90;;;;;;5132876;27;20027;-44
2021/07/05 00:50:24;;;;;;;5.82;4.60;;;23.60;53.00;;;;;;5132325;27;20053;-47
2021/07/05 00:52:52;;;;;;;5.95;4.38;;;23.70;53.30;;;;;;5114941;27;20023;-44
2021/07/05 00:55:19;;;;;;;7.47;3.58;;;23.70;53.50;;;;;;5132655;27;20053;-44
2021/07/05 00:57:45;;;;;;;5.47;3.97;;;23.70;53.70;;;;;;5132643;27;20089;-45
2021/07/05 01:00:14;;;;;;;4.45;3.50;;;23.60;54.60;;;;;;5131226;27;20464;-45
2021/07/05 01:02:40;;;;;;;5.45;3.45;;;23.50;55.10;;;;;;5132386;27;20077;-46
2021/07/05 01:05:07;;;;;;;4.80;3.38;;;23.50;55.30;;;;;;5132682;27;20027;-47
2021/07/05 01:07:32;;;;;;;7.40;2.97;;;23.50;55.40;;;;;;5132643;27;20035;-48
2021/07/05 01:09:58;;;;;;;5.28;2.92;;;23.50;55.90;;;;;;5132823;27;20027;-49
2021/07/05 01:12:24;;;;;;;4.20;3.00;;;23.50;56.20;;;;;;5131959;27;20459;-48
2021/07/05 01:14:50;;;;;;;4.68;3.33;;;23.50;55.90;;;;;;5114067;28;20463;-50
2021/07/05 01:17:16;;;;;;;2.92;2.60;;;23.50;56.30;;;;;;5113260;28;20023;-49
2021/07/05 01:19:44;;;;;;;3.28;2.70;;;23.50;56.40;;;;;;5114354;28;20383;-46
2021/07/05 01:22:11;;;;;;;5.28;2.78;;;23.40;56.70;;;;;;5132038;28;20035;-45
2021/07/05 01:24:37;;;;;;;4.15;2.50;;;23.40;56.60;;;;;;5133142;28;20075;-46
2021/07/05 01:27:03;;;;;;;3.22;2.60;;;23.40;56.70;;;;;;5132312;28;20035;-45
2021/07/05 01:29:29;;;;;;;3.72;2.58;;;23.40;56.80;;;;;;5131551;28;20027;-47
2021/07/05 01:31:56;;;;;;;3.92;2.20;;;23.40;56.70;;;;;;5132194;28;20478;-47
2021/07/05 01:34:22;;;;;;;5.03;2.28;;;23.40;57.00;;;;;;5131623;28;20058;-48
2021/07/05 01:36:49;;;;;;;6.65;2.53;;;23.40;57.30;;;;;;5132656;28;20059;-48
2021/07/05 01:39:15;;;;;;;3.40;2.03;;;23.30;57.20;;;;;;5131818;28;20031;-47
2021/07/05 01:41:41;;;;;;;2.33;1.92;;;23.30;57.30;;;;;;5132300;28;20103;-45
2021/07/05 01:44:26;;;;;;;2.15;1.92;;;23.40;57.50;;;;;;5132609;28;20042;-48
2021/07/05 01:46:51;;;;;;;2.38;1.90;;;23.40;57.40;;;;;;5113743;28;20031;-44
2021/07/05 01:49:17;;;;;;;3.75;2.00;;;23.40;57.50;;;;;;5131930;28;20418;-43
2021/07/05 01:51:43;;;;;;;2.97;1.60;;;23.40;57.50;;;;;;5131918;28;20107;-48
2021/07/05 01:54:13;;;;;;;3.97;1.63;;;23.30;57.40;;;;;;5131875;28;20023;-44
2021/07/05 01:56:39;;;;;;;2.58;1.55;;;23.30;57.40;;;;;;5132455;28;20028;-44
2021/07/05 01:59:05;;;;;;;3.42;1.50;;;23.30;57.70;;;;;;5113566;28;20064;-42
2021/07/05 02:01:31;;;;;;;2.42;1.70;;;23.30;57.60;;;;;;5131646;28;20471;-46
2021/07/05 02:03:57;;;;;;;2.72;1.83;;;23.30;57.70;;;;;;5113171;28;20139;-46
2021/07/05 02:06:23;;;;;;;3.90;1.40;;;23.30;57.80;;;;;;5131455;28;20026;-45
2021/07/05 02:08:49;;;;;;;2.75;1.65;;;23.20;57.80;;;;;;5132171;28;20106;-46
2021/07/05 02:11:15;;;;;;;2.22;1.55;;;23.20;57.90;;;;;;5131840;27;20099;-51
2021/07/05 02:13:41;;;;;;;3.30;1.70;;;23.20;58.10;;;;;;5135513;27;20023;-45
2021/07/05 02:16:06;;;;;;;2.67;1.50;;;23.20;58.10;;;;;;5135539;27;20213;-45
2021/07/05 02:18:33;;;;;;;2.08;1.60;;;23.20;58.30;;;;;;5135450;27;20091;-47
2021/07/05 02:21:03;;;;;;;4.00;1.70;;;23.10;58.50;;;;;;5135692;27;20023;-46
2021/07/05 02:23:31;;;;;;;2.85;1.33;;;23.10;58.40;;;;;;5135171;27;20019;-48
2021/07/05 02:25:57;;;;;;;3.25;1.40;;;23.10;58.50;;;;;;5135985;27;20031;-47
2021/07/05 02:28:28;;;;;;;4.57;1.77;;;23.10;58.50;;;;;;5135032;27;20027;-50
2021/07/05 02:30:55;;;;;;;2.67;1.60;;;23.10;58.70;;;;;;5135670;27;20038;-47
2021/07/05 02:33:23;;;;;;;2.92;1.38;;;23.00;58.70;;;;;;5134713;27;20050;-44
2021/07/05 02:35:50;;;;;;;2.08;1.63;;;23.00;58.90;;;;;;5134991;27;20080;-44
2021/07/05 02:38:17;;;;;;;2.28;1.35;;;23.00;59.00;;;;;;5134324;27;20027;-47
2021/07/05 02:40:48;;;;;;;3.70;1.63;;;23.00;59.70;;;;;;5116569;27;20072;-45
2021/07/05 02:43:17;;;;;;;3.25;2.17;;;22.90;59.20;;;;;;5115889;27;20027;-47
2021/07/05 02:45:46;;;;;;;7.20;2.95;;;22.90;59.00;;;;;;5116109;27;20019;-45
2021/07/05 02:48:18;;;;;;;3.47;2.50;;;22.90;59.10;;;;;;5134350;27;20070;-51
2021/07/05 02:50:48;;;;;;;4.25;1.75;;;22.90;59.00;;;;;;5133776;27;20030;-46
2021/07/05 02:53:14;;;;;;;2.47;1.70;;;22.90;59.00;;;;;;5133548;27;20110;-44
2021/07/05 02:55:41;;;;;;;2.42;1.50;;;22.90;59.00;;;;;;5134576;27;20023;-48
2021/07/05 02:58:07;;;;;;;3.42;1.48;;;22.90;59.00;;;;;;5116285;27;20156;-48
2021/07/05 03:00:37;;;;;;;5.40;1.42;;;22.90;59.10;;;;;;5134193;27;20231;-43
2021/07/05 03:03:03;;;;;;;2.92;1.73;;;22.80;59.10;;;;;;5134655;27;20068;-47
2021/07/05 03:05:30;;;;;;;1.40;1.13;;;22.80;59.10;;;;;;5134008;27;20023;-50
2021/07/05 03:07:57;;;;;;;3.50;1.60;;;22.80;59.00;;;;;;5134924;27;20030;-46
2021/07/05 03:10:34;;;;;;;2.05;1.40;;;22.80;59.00;;;;;;5134083;27;20034;-48
2021/07/05 03:13:05;;;;;;;2.05;1.40;;;22.80;59.90;;;;;;5134147;27;20020;-46
2021/07/05 03:15:31;;;;;;;2.33;1.40;;;22.80;59.10;;;;;;5134669;27;20034;-46
2021/07/05 03:17:57;;;;;;;2.67;1.80;;;22.80;59.10;;;;;;5134362;27;20054;-45
2021/07/05 03:20:26;;;;;;;2.97;1.30;;;22.80;58.90;;;;;;5134091;27;20023;-49
2021/07/05 03:22:52;;;;;;;3.35;1.40;;;22.80;58.80;;;;;;5134311;27;20513;-49
2021/07/05 03:25:20;;;;;;;1.85;1.40;;;22.80;58.80;;;;;;5134293;27;20105;-48
2021/07/05 03:27:47;;;;;;;2.95;1.48;;;22.80;59.00;;;;;;5134350;27;20030;-46
2021/07/05 03:30:17;;;;;;;3.15;1.40;;;22.90;58.70;;;;;;5116304;27;20114;-45
2021/07/05 03:32:43;;;;;;;2.45;1.48;;;22.90;58.70;;;;;;5134290;27;20398;-47
2021/07/05 03:35:10;;;;;;;1.98;1.40;;;22.90;58.90;;;;;;5134114;27;20038;-45
2021/07/05 03:37:36;;;;;;;4.28;1.35;;;22.90;58.60;;;;;;5133738;27;20392;-45
2021/07/05 03:40:05;;;;;;;1.88;1.40;;;23.00;58.60;;;;;;5133987;27;20023;-46
2021/07/05 03:42:31;;;;;;;2.70;1.42;;;23.00;58.50;;;;;;5133456;27;20425;-47
2021/07/05 03:44:57;;;;;;;4.03;1.50;;;23.00;58.40;;;;;;5134623;27;20027;-45
2021/07/05 03:47:22;;;;;;;2.70;1.30;;;23.10;58.20;;;;;;5114971;27;20031;-47
2021/07/05 03:49:48;;;;;;;2.38;1.40;;;23.10;58.20;;;;;;5134342;27;20102;-45
2021/07/05 03:52:14;;;;;;;2.13;1.60;;;23.00;58.20;;;;;;5133799;27;20096;-45
2021/07/05 03:54:39;;;;;;;2.08;1.45;;;23.10;58.20;;;;;;5132786;27;20119;-48
2021/07/05 03:57:06;;;;;;;2.00;1.50;;;23.10;58.00;;;;;;5133358;27;20102;-48
2021/07/05 03:59:32;;;;;;;1.80;1.42;;;23.20;57.80;;;;;;5114624;27;20105;-46
2021/07/05 04:01:58;;;;;;;1.92;1.40;;;23.30;57.80;;;;;;5115249;27;20126;-49
2021/07/05 04:04:23;;;;;;;2.38;1.55;;;23.30;57.60;;;;;;5114085;27;20158;-45
2021/07/05 04:09:33;;;;;;;3.00;1.30;;;23.40;57.40;;;;;;5133065;27;20037;-45
2021/07/05 04:11:59;;;;;;;2.35;1.50;;;23.40;57.30;;;;;;5133896;27;20027;-46
2021/07/05 04:14:25;;;;;;;1.85;1.20;;;23.40;57.30;;;;;;5132664;27;20052;-45
2021/07/05 04:16:50;;;;;;;2.17;1.50;;;23.40;57.40;;;;;;5132847;27;20034;-49
2021/07/05 04:19:16;;;;;;;5.28;1.52;;;23.50;57.20;;;;;;5133598;27;20019;-46
2021/07/05 04:24:26;;;;;;;5.47;1.50;;;23.50;57.10;;;;;;5132859;27;20025;-47
2021/07/05 04:26:52;;;;;;;3.55;1.90;;;23.50;57.00;;;;;;5114645;27;20031;-46
2021/07/05 04:29:18;;;;;;;5.45;1.65;;;23.60;57.10;;;;;;5132636;27;20357;-45
2021/07/05 04:31:43;;;;;;;1.80;1.13;;;23.60;56.90;;;;;;5098283;27;20080;-48
2021/07/05 04:34:09;;;;;;;4.40;1.60;;;23.60;56.80;;;;;;5113969;28;20038;-47
2021/07/05 04:36:36;;;;;;;2.50;1.45;;;23.60;56.90;;;;;;5132284;27;20114;-44
2021/07/05 04:39:04;;;;;;;4.78;1.52;;;23.60;57.00;;;;;;5114487;27;20422;-45
2021/07/05 04:41:30;;;;;;;2.58;1.40;;;23.50;57.20;;;;;;5132551;27;20132;-51
2021/07/05 04:43:56;;;;;;;5.28;1.50;;;23.50;57.10;;;;;;5133171;27;20051;-49
2021/07/05 04:46:24;;;;;;;4.75;1.60;;;23.60;57.20;;;;;;5132602;27;20076;-46
2021/07/05 04:48:50;;;;;;;3.28;1.50;;;23.60;57.30;;;;;;5132935;27;20075;-51
2021/07/05 04:51:18;;;;;;;3.85;1.48;;;23.50;57.40;;;;;;5133311;27;20035;-53
2021/07/05 04:53:44;;;;;;;6.18;1.20;;;23.40;57.50;;;;;;5114761;27;20047;-54
2021/07/05 04:56:10;;;;;;;5.65;1.55;;;23.50;57.20;;;;;;5133178;27;20520;-57
2021/07/05 04:58:37;;;;;;;2.38;1.30;;;23.60;57.20;;;;;;5131855;27;20038;-56
2021/07/05 05:01:03;;;;;;;3.47;1.80;;;23.60;57.40;;;;;;5132508;27;20046;-57
2021/07/05 05:03:29;;;;;;;2.00;1.23;;;23.40;57.70;;;;;;5131557;27;20043;-52
2021/07/05 05:05:55;;;;;;;2.35;1.20;;;23.40;57.70;;;;;;5133046;27;20103;-58
2021/07/05 05:08:20;;;;;;;2.15;1.38;;;23.40;57.70;;;;;;5132557;27;20038;-59
2021/07/05 05:10:46;;;;;;;3.13;1.30;;;23.40;57.80;;;;;;5132150;27;20077;-57
2021/07/05 05:13:12;;;;;;;1.95;1.40;;;23.50;57.30;;;;;;5114154;28;20113;-58
2021/07/05 05:15:38;;;;;;;2.83;1.20;;;23.40;57.70;;;;;;5113344;28;20425;-56
2021/07/05 05:18:05;;;;;;;2.95;1.40;;;23.50;57.30;;;;;;5132547;28;20035;-60
2021/07/05 05:20:32;;;;;;;4.82;1.60;;;23.60;57.10;;;;;;5131616;28;20460;-58
2021/07/05 05:22:57;;;;;;;1.65;1.35;;;23.70;56.80;;;;;;5113962;28;20027;-57
2021/07/05 05:25:23;;;;;;;2.80;1.65;;;23.70;56.50;;;;;;5132448;28;20033;-57
2021/07/05 05:27:50;;;;;;;3.28;1.27;;;23.80;56.50;;;;;;5113903;28;20042;-57
2021/07/05 05:30:18;;;;;;;2.40;1.30;;;23.80;56.30;;;;;;5113728;28;20032;-58
2021/07/05 05:32:45;;;;;;;7.05;1.67;;;23.70;56.60;;;;;;5131323;28;20114;-57
2021/07/05 05:35:13;;;;;;;2.33;1.20;;;23.70;56.50;;;;;;5114217;28;20027;-58
2021/07/05 05:37:39;;;;;;;1.95;1.38;;;23.90;55.90;;;;;;5131240;28;20038;-58
2021/07/05 05:40:06;;;;;;;4.55;1.50;;;23.90;55.80;;;;;;5132669;28;20019;-55
2021/07/05 05:42:32;;;;;;;3.20;1.60;;;23.90;55.80;;;;;;5131783;28;20027;-54
2021/07/05 05:44:57;;;;;;;2.55;1.42;;;24.00;55.70;;;;;;5132160;28;20148;-57
2021/07/05 05:47:24;;;;;;;4.10;2.05;;;24.20;55.00;;;;;;5135210;27;20035;-59
2021/07/05 05:49:49;;;;;;;5.00;1.40;;;24.10;55.20;;;;;;5136761;27;20034;-57
2021/07/05 05:52:15;;;;;;;6.55;1.45;;;24.20;55.00;;;;;;5136687;27;20027;-58
2021/07/05 05:54:41;;;;;;;10.20;1.70;;;24.20;54.80;;;;;;5136400;27;20439;-58
2021/07/05 05:57:24;;;;;;;2.28;1.23;;;24.10;55.30;;;;;;5136790;27;20364;-59
2021/07/05 05:59:50;;;;;;;2.35;1.52;;;24.10;55.10;;;;;;5118369;27;20020;-58
2021/07/05 06:02:16;;;;;;;20.75;4.65;;;24.30;54.70;;;;;;5136627;27;20118;-57
2021/07/05 06:04:41;;;;;;;2.72;1.70;;;24.30;54.70;;;;;;5135728;27;20119;-59
2021/07/05 06:07:07;;;;;;;3.63;1.58;;;24.40;54.40;;;;;;5118005;27;20072;-57
2021/07/05 06:09:35;;;;;;;1.77;1.20;;;24.30;54.40;;;;;;5117331;27;20371;-56
2021/07/05 06:12:02;;;;;;;2.67;1.40;;;24.20;54.50;;;;;;5135875;27;20050;-57
2021/07/05 06:14:27;;;;;;;5.53;1.70;;;24.20;54.70;;;;;;5135120;27;20066;-60
2021/07/05 06:16:53;;;;;;;4.28;1.50;;;24.30;54.40;;;;;;5117706;27;20051;-60
2021/07/05 06:19:19;;;;;;;5.57;1.73;;;24.40;54.20;;;;;;5117587;27;20023;-60
2021/07/05 06:21:46;;;;;;;33.63;2.50;;;24.40;54.20;;;;;;5116687;27;20296;-62
2021/07/05 06:24:12;;;;;;;3.28;1.27;;;24.40;54.30;;;;;;5135623;27;20075;-58
2021/07/05 06:26:38;;;;;;;2.80;1.45;;;24.40;54.00;;;;;;5116793;27;20066;-60
2021/07/05 06:29:03;;;;;;;10.27;2.38;;;24.60;53.50;;;;;;5135741;27;20066;-60
2021/07/05 06:31:32;;;;;;;3.08;1.33;;;24.80;52.90;;;;;;5135023;27;20376;-60
2021/07/05 06:33:57;;;;;;;4.10;1.30;;;25.00;52.40;;;;;;5135161;27;20042;-61
2021/07/05 06:36:23;;;;;;;7.70;1.65;;;25.30;51.90;;;;;;5116747;27;20031;-61
2021/07/05 06:38:49;;;;;;;2.17;1.50;;;25.30;51.40;;;;;;5116090;27;20367;-57
2021/07/05 06:41:15;;;;;;;3.47;1.40;;;25.50;50.90;;;;;;5116845;27;20447;-58
2021/07/05 06:43:41;;;;;;;3.25;1.55;;;25.60;50.90;;;;;;5116333;27;20026;-57
2021/07/05 06:46:08;;;;;;;5.15;1.60;;;25.70;50.50;;;;;;5135966;27;20031;-57
2021/07/05 06:48:33;;;;;;;3.38;1.42;;;25.70;50.60;;;;;;5135125;27;20069;-58
2021/07/05 06:50:59;;;;;;;4.95;1.50;;;25.90;50.10;;;;;;5134917;27;20065;-54
2021/07/05 06:53:26;;;;;;;4.03;1.40;;;26.20;49.50;;;;;;5134363;27;20464;-59
2021/07/05 06:55:51;;;;;;;4.68;1.55;;;26.50;48.80;;;;;;5134609;27;20027;-59
2021/07/05 06:58:17;;;;;;;6.70;1.75;;;28.10;47.10;;;;;;5116283;27;20041;-59
2021/07/05 07:00:43;;;;;;;4.38;1.70;;;29.80;42.70;;;;;;5134021;27;20106;-56
2021/07/05 07:03:08;;;;;;;4.38;1.50;;;30.90;40.30;;;;;;5134679;27;20100;-58
2021/07/05 07:05:34;;;;;;;5.18;1.45;;;31.60;38.80;;;;;;5115229;27;20114;-60
2021/07/05 07:08:01;;;;;;;2.67;1.50;;;30.80;39.50;;;;;;5135223;27;20031;-59
2021/07/05 07:10:27;;;;;;;2.75;1.48;;;30.00;40.90;;;;;;5135082;27;20088;-60
2021/07/05 07:12:57;;;;;;;3.63;1.40;;;29.30;42.10;;;;;;5134668;27;20041;-58
2021/07/05 07:15:36;;;;;;;3.47;1.30;;;29.10;42.30;;;;;;5116220;27;20027;-58
2021/07/05 07:20:28;;;;;;;3.42;1.50;;;28.70;43.00;;;;;;5134340;27;20073;-59
2021/07/05 07:22:53;;;;;;;3.40;1.73;;;28.90;42.80;;;;;;5113515;27;20020;-60
2021/07/05 07:25:19;;;;;;;2.17;1.20;;;30.30;40.80;;;;;;5133376;27;20080;-59
2021/07/05 07:27:45;;;;;;;3.65;1.33;;;31.20;39.10;;;;;;5133227;27;20371;-61
2021/07/05 07:30:13;;;;;;;2.50;1.30;;;31.90;38.40;;;;;;5133600;27;20368;-58
2021/07/05 07:32:39;;;;;;;2.65;1.58;;;31.80;37.40;;;;;;5114119;27;20463;-58
2021/07/05 07:35:06;;;;;;;2.33;1.30;;;30.80;38.80;;;;;;5134593;27;20023;-58
2021/07/05 07:37:33;;;;;;;5.22;1.23;;;31.10;38.60;;;;;;5134357;27;20023;-60
2021/07/05 07:40:03;;;;;;;2.20;1.33;;;31.40;38.20;;;;;;5133968;27;20034;-60
2021/07/05 07:42:29;;;;;;;5.30;1.73;;;32.20;37.30;;;;;;5116504;27;20462;-58
2021/07/05 07:44:55;;;;;;;7.75;1.73;;;33.00;36.30;;;;;;5115582;27;20051;-57
2021/07/05 07:47:20;;;;;;;9.38;2.15;;;34.30;35.00;;;;;;5134047;27;20514;-56
2021/07/05 07:49:46;;;;;;;8.85;1.70;;;36.20;32.80;;;;;;5115647;27;20034;-60
2021/07/05 07:52:12;;;;;;;5.80;1.48;;;37.00;31.10;;;;;;5134361;27;20042;-59
2021/07/05 07:54:38;;;;;;;2.88;1.30;;;37.00;30.80;;;;;;5115034;27;20065;-60
2021/07/05 07:57:04;;;;;;;3.72;1.30;;;35.80;31.40;;;;;;5133599;27;20027;-60
2021/07/05 07:59:30;;;;;;;9.10;1.50;;;34.30;33.30;;;;;;5115005;27;20058;-58
2021/07/05 08:01:55;;;;;;;6.93;1.70;;;33.00;34.80;;;;;;5113959;27;20031;-59
2021/07/05 08:04:21;;;;;;;11.43;1.90;;;32.30;36.00;;;;;;5133417;27;20053;-57
2021/07/05 08:06:47;;;;;;;3.58;1.90;;;32.70;36.00;;;;;;5113984;27;20502;-56
2021/07/05 08:09:14;;;;;;;5.35;1.90;;;34.80;34.20;;;;;;5115188;27;20027;-58
2021/07/05 08:11:40;;;;;;;4.85;1.90;;;36.90;31.70;;;;;;5132773;27;20019;-60
2021/07/05 08:14:07;;;;;;;1.98;1.70;;;38.50;30.00;;;;;;5115225;27;20019;-56
2021/07/05 08:16:33;;;;;;;4.60;1.80;;;39.50;28.80;;;;;;5114628;27;20023;-60
2021/07/05 08:18:59;;;;;;;3.38;1.85;;;40.10;28.50;;;;;;5115236;27;20104;-60
2021/07/05 08:21:26;;;;;;;4.70;2.13;;;40.80;28.00;;;;;;5133621;27;20027;-58
2021/07/05 08:23:52;;;;;;;3.90;2.38;;;42.20;27.10;;;;;;5133119;27;20557;-57
2021/07/05 08:26:18;;;;;;;1.98;1.80;;;42.80;26.20;;;;;;5133272;27;20030;-59
2021/07/05 08:28:45;;;;;;;3.25;1.90;;;42.50;26.40;;;;;;5114586;27;20464;-59
2021/07/05 08:31:11;;;;;;;4.57;1.73;;;42.40;26.50;;;;;;5114962;27;20023;-59
2021/07/05 08:33:37;;;;;;;4.57;2.47;;;42.80;26.10;;;;;;5132666;27;20024;-58
2021/07/05 08:36:05;;;;;;;5.45;1.90;;;42.20;26.30;;;;;;5133590;27;20030;-58
2021/07/05 08:38:31;;;;;;;5.50;1.98;;;41.70;26.60;;;;;;5133389;27;20023;-60
2021/07/05 08:41:00;;;;;;;5.57;2.13;;;40.90;26.80;;;;;;5115228;27;20464;-57
2021/07/05 08:43:28;;;;;;;4.07;3.08;;;40.70;27.20;;;;;;5133906;27;20037;-59
2021/07/05 08:45:59;;;;;;;9.57;2.53;;;42.10;26.50;;;;;;5133005;27;20030;-57
2021/07/05 08:48:29;;;;;;;1.98;1.48;;;42.70;26.00;;;;;;5133308;27;20023;-59
2021/07/05 08:50:55;;;;;;;3.95;2.25;;;42.50;25.80;;;;;;5113970;27;20130;-60
2021/07/05 08:53:21;;;;;;;1.98;1.30;;;41.60;26.20;;;;;;5097697;27;20020;-59
2021/07/05 08:55:47;;;;;;;2.20;1.27;;;40.00;27.20;;;;;;5132924;27;20084;-60
2021/07/05 08:58:13;;;;;;;4.38;1.50;;;38.30;28.50;;;;;;5133023;27;20034;-58
2021/07/05 09:00:39;;;;;;;4.60;2.20;;;37.50;29.10;;;;;;5132189;27;20019;-58
2021/07/05 09:03:05;;;;;;;2.45;1.40;;;37.10;29.80;;;;;;5113732;27;20134;-57
2021/07/05 09:05:31;;;;;;;4.25;1.73;;;36.80;30.00;;;;;;5114249;27;20114;-58
2021/07/05 09:08:07;;;;;;;3.60;1.40;;;36.00;30.40;;;;;;5131408;27;20099;-59
2021/07/05 09:10:42;;;;;;;2.28;1.35;;;35.20;31.20;;;;;;5113192;27;20027;-58
2021/07/05 09:13:16;;;;;;;3.72;1.52;;;34.70;31.60;;;;;;5113860;27;20503;-59
2021/07/05 09:15:45;;;;;;;2.60;1.40;;;34.10;32.40;;;;;;5127186;27;20023;-58
2021/07/05 09:18:34;;;;;;;2.97;1.40;;;33.20;34.00;;;;;;5113237;28;20072;-59
2021/07/05 09:21:09;;;;;;;2.42;1.30;;;32.60;35.00;;;;;;5113362;28;20019;-58
2021/07/05 09:23:43;;;;;;;2.80;1.20;;;32.00;35.80;;;;;;5131109;28;20033;-60
2021/07/05 09:26:20;;;;;;;3.15;1.30;;;31.90;35.70;;;;;;5132396;28;20027;-58
2021/07/05 09:28:46;;;;;;;2.47;1.50;;;31.60;36.50;;;;;;5131878;28;20110;-56
2021/07/05 09:31:12;;;;;;;3.42;1.00;;;31.30;36.90;;;;;;5132237;28;20126;-57
2021/07/05 09:33:46;;;;;;;3.35;1.33;;;31.20;36.70;;;;;;5112918;28;20023;-52
2021/07/05 09:36:21;;;;;;;4.35;1.33;;;31.00;36.90;;;;;;5132465;28;20027;-54
2021/07/05 09:38:47;;;;;;;2.22;1.23;;;31.20;36.80;;;;;;5131736;28;20023;-59
2021/07/05 09:41:17;;;;;;;3.80;1.40;;;31.20;37.20;;;;;;5113753;28;20106;-57
2021/07/05 09:43:43;;;;;;;3.00;1.52;;;31.00;37.20;;;;;;5113054;28;20023;-58
2021/07/05 09:46:13;;;;;;;2.58;1.40;;;30.80;37.60;;;;;;5131772;28;20095;-58
2021/07/05 09:48:45;;;;;;;3.05;1.42;;;30.70;37.50;;;;;;5131022;28;20038;-59
2021/07/05 09:51:14;;;;;;;3.25;1.75;;;30.70;37.80;;;;;;5113717;28;20024;-59
2021/07/05 09:53:45;;;;;;;3.00;1.48;;;30.40;38.40;;;;;;5112453;28;20027;-56
2021/07/05 09:56:26;;;;;;;3.15;1.40;;;30.20;38.60;;;;;;5113819;28;20375;-58
2021/07/05 09:59:18;;;;;;;3.63;1.77;;;30.30;38.10;;;;;;5113428;28;20023;-60
2021/07/05 10:01:46;;;;;;;3.17;1.30;;;30.40;38.10;;;;;;5112675;28;20141;-57
2021/07/05 10:04:23;;;;;;;5.28;1.73;;;30.30;38.40;;;;;;5112897;28;20104;-57
2021/07/05 10:06:50;;;;;;;2.65;1.42;;;30.20;38.40;;;;;;5130804;28;20055;-56
2021/07/05 10:09:19;;;;;;;5.00;1.73;;;30.20;38.20;;;;;;5132173;28;20031;-60
2021/07/05 10:11:46;;;;;;;3.28;1.23;;;30.20;38.30;;;;;;5113048;28;20030;-56
2021/07/05 10:14:15;;;;;;;2.95;1.17;;;30.10;37.90;;;;;;5131928;28;20023;-60
2021/07/05 10:16:43;;;;;;;5.20;1.52;;;29.80;37.80;;;;;;5131381;28;20039;-55
2021/07/05 10:19:11;;;;;;;3.80;1.33;;;29.60;39.20;;;;;;5131244;28;20080;-57
2021/07/05 10:21:38;;;;;;;2.47;1.20;;;29.70;38.80;;;;;;5112432;28;20020;-58
2021/07/05 10:24:07;;;;;;;3.25;1.27;;;29.80;38.40;;;;;;5130831;28;20019;-59
2021/07/05 10:26:35;;;;;;;3.88;1.25;;;30.00;37.90;;;;;;5130854;28;20027;-60
2021/07/05 10:29:02;;;;;;;6.55;1.90;;;30.00;38.20;;;;;;5130193;28;20031;-59
2021/07/05 10:31:28;;;;;;;3.25;1.73;;;30.00;38.40;;;;;;5130576;27;20152;-61
2021/07/05 10:33:58;;;;;;;2.53;1.52;;;30.20;38.10;;;;;;5133269;27;20045;-59
2021/07/05 10:36:27;;;;;;;2.35;1.50;;;30.30;37.80;;;;;;5135157;27;20034;-60
2021/07/05 10:38:56;;;;;;;4.50;1.17;;;30.50;37.60;;;;;;5134894;27;20446;-60
2021/07/05 10:41:32;;;;;;;3.33;1.40;;;30.40;37.60;;;;;;5116951;27;20072;-60
2021/07/05 10:44:03;;;;;;;3.63;1.60;;;30.40;37.90;;;;;;5116339;27;20019;-60
2021/07/05 10:46:50;;;;;;;4.53;1.40;;;30.30;38.50;;;;;;5135636;27;20023;-59
2021/07/05 10:49:27;;;;;;;3.92;1.50;;;30.10;37.80;;;;;;5134810;27;20027;-59
2021/07/05 10:51:56;;;;;;;3.92;1.45;;;30.10;38.80;;;;;;5129004;27;20020;-59
2021/07/05 10:54:44;;;;;;;3.08;1.40;;;30.10;39.00;;;;;;5129026;27;20023;-59
2021/07/05 10:57:14;;;;;;;2.70;1.20;;;30.10;37.60;;;;;;5123685;27;20023;-60
2021/07/05 10:59:46;;;;;;;1.73;1.00;;;30.00;37.70;;;;;;5130469;27;20023;-62
2021/07/05 11:02:37;;;;;;;5.07;1.40;;;30.00;37.80;;;;;;5126625;27;20114;-60
2021/07/05 11:05:25;;;;;;;1.85;1.45;;;29.80;38.60;;;;;;5129540;27;20043;-60
2021/07/05 11:07:53;;;;;;;4.85;2.20;;;29.80;38.00;;;;;;5129021;27;20434;-58
2021/07/05 11:10:27;;;;;;;2.50;1.30;;;29.90;38.20;;;;;;5114810;27;20063;-59
2021/07/05 11:13:03;;;;;;;4.72;1.67;;;29.90;38.00;;;;;;5128637;27;20070;-59
2021/07/05 11:15:53;;;;;;;2.78;1.20;;;29.90;38.70;;;;;;5131470;27;20147;-59
2021/07/05 11:18:37;;;;;;;3.38;1.40;;;30.10;37.40;;;;;;5112984;27;20119;-59
2021/07/05 11:21:23;;;;;;;3.17;1.70;;;30.10;37.80;;;;;;5131235;27;20108;-58
2021/07/05 11:23:57;;;;;;;1.52;1.10;;;30.10;38.20;;;;;;5110695;27;20459;-57
2021/07/05 11:26:34;;;;;;;4.15;1.20;;;30.00;37.60;;;;;;5133211;27;20019;-60
2021/07/05 11:29:15;;;;;;;1.77;1.10;;;30.20;37.50;;;;;;5114634;27;20039;-60
2021/07/05 11:31:55;;;;;;;3.28;1.45;;;30.20;37.30;;;;;;5113161;27;20106;-61
2021/07/05 11:34:36;;;;;;;3.60;1.33;;;30.50;37.10;;;;;;5133449;27;20110;-59
2021/07/05 11:37:13;;;;;;;4.20;1.15;;;30.50;37.20;;;;;;5132657;27;20318;-60
2021/07/05 11:39:48;;;;;;;4.35;1.60;;;30.10;38.30;;;;;;5115132;27;20034;-60
2021/07/05 11:42:39;;;;;;;4.85;1.70;;;30.10;38.20;;;;;;5133404;27;20467;-59
2021/07/05 11:45:06;;;;;;;2.97;1.45;;;30.20;38.20;;;;;;5131574;27;20507;-62
2021/07/05 11:47:47;;;;;;;4.28;1.30;;;30.00;38.10;;;;;;5133107;27;20118;-62
2021/07/05 11:50:24;;;;;;;2.55;0.95;;;29.90;37.90;;;;;;5133364;27;20023;-61
2021/07/05 11:53:04;;;;;;;5.18;1.40;;;29.80;37.50;;;;;;5132358;27;20059;-60
2021/07/05 11:55:32;;;;;;;3.53;1.50;;;29.80;37.60;;;;;;5113739;27;20034;-60
2021/07/05 11:58:06;;;;;;;4.10;1.48;;;29.60;38.70;;;;;;5113631;27;20084;-59
2021/07/05 12:00:34;;;;;;;2.45;1.20;;;29.50;39.00;;;;;;5132648;27;20034;-60
2021/07/05 12:03:04;;;;;;;3.25;1.30;;;29.40;38.50;;;;;;5113376;27;20108;-60
2021/07/05 12:05:31;;;;;;;3.38;1.48;;;29.20;39.50;;;;;;5132385;27;20026;-60
2021/07/05 12:08:16;;;;;;;6.88;1.17;;;29.20;39.30;;;;;;5113202;27;20031;-60
2021/07/05 12:10:44;;;;;;;4.95;1.50;;;29.40;38.90;;;;;;5131402;27;20476;-61
2021/07/05 12:13:21;;;;;;;1.90;1.00;;;29.50;38.90;;;;;;5127017;27;20027;-60
2021/07/05 12:15:57;;;;;;;2.22;1.42;;;29.40;38.30;;;;;;5127409;27;20562;-61
2021/07/05 12:18:23;;;;;;;3.88;1.17;;;29.40;38.70;;;;;;5111123;27;20030;-61
2021/07/05 12:21:15;;;;;;;3.35;1.20;;;29.20;38.60;;;;;;5131147;27;20027;-60
2021/07/05 12:23:42;;;;;;;6.28;1.20;;;28.90;39.20;;;;;;5129499;27;20511;-57
2021/07/05 12:26:21;;;;;;;15.63;1.30;;;28.70;39.00;;;;;;5113778;27;20083;-61
2021/07/05 12:29:21;;;;;;;2.30;1.27;;;28.80;39.40;;;;;;5112637;27;20032;-61
2021/07/05 12:32:13;;;;;;;2.42;1.30;;;28.90;38.50;;;;;;5114143;27;20084;-62
2021/07/05 12:34:45;;;;;;;4.80;1.75;;;29.10;39.20;;;;;;5096734;27;20110;-58
2021/07/05 12:37:29;;;;;;;3.42;1.50;;;29.40;38.40;;;;;;5131531;27;20035;-60
2021/07/05 12:40:03;;;;;;;2.42;1.20;;;29.70;38.10;;;;;;5131045;27;20026;-60
2021/07/05 12:42:50;;;;;;;8.13;1.52;;;29.50;38.10;;;;;;5113554;27;20118;-53
2021/07/05 12:45:28;;;;;;;3.50;1.42;;;29.30;39.10;;;;;;5131470;27;20688;-55
2021/07/05 12:47:58;;;;;;;3.92;1.10;;;29.30;39.10;;;;;;5112137;27;20440;-57
2021/07/05 12:50:32;;;;;;;4.78;1.40;;;29.40;37.10;;;;;;5112762;27;20031;-59
2021/07/05 12:53:09;;;;;;;8.07;1.50;;;29.50;37.80;;;;;;5131593;27;20092;-58
2021/07/05 12:55:38;;;;;;;2.45;1.40;;;29.50;38.60;;;;;;5112510;27;20045;-58
2021/07/05 12:58:04;;;;;;;4.68;1.30;;;29.40;38.40;;;;;;5112907;27;20077;-59
2021/07/05 13:00:31;;;;;;;5.03;1.00;;;29.50;38.30;;;;;;5112795;27;20038;-54
2021/07/05 13:03:18;;;;;;;2.85;1.10;;;29.60;38.50;;;;;;5130585;27;20047;-51